Time;durP1;ratioP1;P1;durP2;ratioP2;P2;SDS_P1;SDS_P2;PMS_P1;PMS_P2;Temp;Humidity;BMP_temperature;BMP_pressure;BME280_temperature;BME280_humidity;BME280_pressure;Samples;Min_cycle;Max_cycle;Signal;HPM_P1;HPM_P2
2022/08/13 00:00:59;;;;;;;4.95;3.55;;;;;;;;;;5008332;28;20052;-83
2022/08/13 00:03:26;;;;;;;3.83;2.88;;;;;;;;;;5019481;28;20032;-83
2022/08/13 00:05:52;;;;;;;4.70;3.30;;;;;;;;;;5019400;28;20836;-83
2022/08/13 00:08:23;;;;;;;5.82;3.53;;;;;;;;;;5023316;28;20084;-84
2022/08/13 00:10:52;;;;;;;4.40;3.47;;;;;;;;;;5024024;28;20065;-83
2022/08/13 00:13:18;;;;;;;4.25;3.70;;;;;;;;;;4998284;28;20474;-84
2022/08/13 00:15:46;;;;;;;4.07;3.58;;;;;;;;;;5022206;28;20029;-84
2022/08/13 00:18:19;;;;;;;4.43;3.55;;;;;;;;;;4999861;28;20029;-84
2022/08/13 00:20:49;;;;;;;5.30;4.10;;;;;;;;;;5019691;28;20489;-84
2022/08/13 00:23:15;;;;;;;;;;;;;;;;;;5023854;28;20108;-84
2022/08/13 00:25:42;;;;;;;4.65;3.70;;;;;;;;;;5017264;28;19913;-83
2022/08/13 00:28:08;;;;;;;5.05;3.58;;;;;;;;;;5000726;28;20068;-83
2022/08/13 00:30:36;;;;;;;5.22;3.75;;;;;;;;;;5028344;28;20025;-84
2022/08/13 00:33:06;;;;;;;4.43;3.78;;;;;;;;;;5003802;28;20494;-83
2022/08/13 00:35:36;;;;;;;3.90;3.30;;;;;;;;;;5015116;28;20067;-83
2022/08/13 00:38:02;;;;;;;4.95;3.80;;;;;;;;;;5021072;28;20025;-84
2022/08/13 00:40:29;;;;;;;4.47;3.60;;;;;;;;;;4994981;28;20177;-83
2022/08/13 00:43:02;;;;;;;4.43;3.90;;;;;;;;;;5023609;28;20108;-83
2022/08/13 00:45:31;;;;;;;5.63;3.67;;;;;;;;;;5021725;28;20064;-83
2022/08/13 00:50:51;;;;;;;4.63;3.38;;;;;;;;;;4992862;28;20395;-84
2022/08/13 00:53:17;;;;;;;4.32;3.25;;;;;;;;;;5022505;28;20033;-83
2022/08/13 00:55:48;;;;;;;5.05;3.67;;;;;;;;;;5022994;28;20072;-84
2022/08/13 00:58:16;;;;;;;6.13;3.88;;;;;;;;;;5013483;28;20459;-83
2022/08/13 01:00:47;;;;;;;4.38;3.50;;;;;;;;;;5017876;28;20025;-84
2022/08/13 01:03:14;;;;;;;4.05;3.65;;;;;;;;;;5018664;28;20026;-83
2022/08/13 01:05:43;;;;;;;4.70;4.18;;;;;;;;;;5025212;28;20044;-84
2022/08/13 01:08:09;;;;;;;5.07;3.60;;;;;;;;;;5021473;28;20052;-84
2022/08/13 01:10:35;;;;;;;4.10;3.50;;;;;;;;;;5020325;28;20033;-83
2022/08/13 01:13:01;;;;;;;4.55;3.88;;;;;;;;;;5022194;28;20543;-83
2022/08/13 01:15:27;;;;;;;4.53;4.05;;;;;;;;;;5017870;28;20057;-84
2022/08/13 01:17:54;;;;;;;5.20;4.13;;;;;;;;;;5020284;28;20030;-83
2022/08/13 01:20:21;;;;;;;6.57;4.75;;;;;;;;;;5022418;28;20385;-84
2022/08/13 01:22:52;;;;;;;5.20;4.70;;;;;;;;;;5023607;28;20480;-84
2022/08/13 01:25:21;;;;;;;4.97;4.35;;;;;;;;;;5017747;28;20030;-84
2022/08/13 01:27:48;;;;;;;5.50;4.63;;;;;;;;;;5013734;28;20060;-84
2022/08/13 01:30:15;;;;;;;6.07;4.63;;;;;;;;;;5024020;28;20021;-84
2022/08/13 01:32:41;;;;;;;6.65;4.65;;;;;;;;;;5020457;28;20495;-84
2022/08/13 01:35:08;;;;;;;5.78;4.35;;;;;;;;;;5005437;28;20030;-84
2022/08/13 01:37:34;;;;;;;4.88;4.18;;;;;;;;;;5022613;28;20033;-84
2022/08/13 01:40:00;;;;;;;6.57;4.70;;;;;;;;;;5020219;28;20045;-84
2022/08/13 01:42:26;;;;;;;4.65;3.60;;;;;;;;;;5015724;28;20419;-84
2022/08/13 01:44:51;;;;;;;6.22;4.13;;;;;;;;;;5017687;28;20040;-83
2022/08/13 01:52:48;;;;;;;6.90;4.30;;;;;;;;;;5011050;28;20124;-83
2022/08/13 01:55:13;;;;;;;5.55;4.35;;;;;;;;;;5014590;28;20105;-83
2022/08/13 01:57:43;;;;;;;6.82;4.47;;;;;;;;;;5017850;28;20064;-84
2022/08/13 02:00:13;;;;;;;4.90;4.40;;;;;;;;;;5018093;28;20386;-84
2022/08/13 02:02:42;;;;;;;5.53;4.60;;;;;;;;;;5021594;28;20136;-84
2022/08/13 02:05:12;;;;;;;5.07;4.20;;;;;;;;;;5020678;28;20100;-83
2022/08/13 02:07:43;;;;;;;6.30;4.07;;;;;;;;;;5026472;28;20258;-83
2022/08/13 02:10:09;;;;;;;4.82;3.63;;;;;;;;;;5025663;28;20033;-84
2022/08/13 02:12:36;;;;;;;4.72;4.10;;;;;;;;;;5024269;28;20022;-82
2022/08/13 02:15:05;;;;;;;4.90;3.90;;;;;;;;;;5021985;28;20153;-83
2022/08/13 02:17:38;;;;;;;4.78;3.75;;;;;;;;;;5017601;28;20446;-83
2022/08/13 02:20:05;;;;;;;4.95;3.72;;;;;;;;;;5018631;28;20028;-83
2022/08/13 02:22:31;;;;;;;5.10;3.95;;;;;;;;;;5022438;28;20065;-82
2022/08/13 02:24:57;;;;;;;4.05;3.60;;;;;;;;;;5016087;28;21426;-83
2022/08/13 02:27:25;;;;;;;4.55;3.95;;;;;;;;;;5007557;28;20080;-83
2022/08/13 02:29:52;;;;;;;4.57;3.80;;;;;;;;;;5019826;28;20100;-83
2022/08/13 02:32:18;;;;;;;5.00;3.40;;;;;;;;;;5018774;28;20029;-83
2022/08/13 02:34:46;;;;;;;5.18;3.47;;;;;;;;;;5022017;28;20074;-85
2022/08/13 02:37:14;;;;;;;4.93;3.47;;;;;;;;;;5023448;28;20072;-84
2022/08/13 02:39:39;;;;;;;4.57;3.90;;;;;;;;;;5023256;28;20022;-83
2022/08/13 02:42:05;;;;;;;4.13;3.40;;;;;;;;;;5028085;28;20104;-83
2022/08/13 02:44:31;;;;;;;3.75;3.35;;;;;;;;;;5017071;28;20364;-83
2022/08/13 02:46:56;;;;;;;5.75;4.00;;;;;;;;;;5022629;28;20112;-83
2022/08/13 02:49:22;;;;;;;4.75;3.30;;;;;;;;;;5021078;28;20037;-84
2022/08/13 02:51:49;;;;;;;4.93;3.63;;;;;;;;;;5023526;28;20076;-83
2022/08/13 02:54:17;;;;;;;4.20;3.20;;;;;;;;;;5020966;28;20026;-83
2022/08/13 02:56:43;;;;;;;4.20;3.42;;;;;;;;;;5023723;28;20025;-83
2022/08/13 02:59:10;;;;;;;3.58;3.15;;;;;;;;;;5001873;28;20456;-83
2022/08/13 03:01:38;;;;;;;4.53;3.88;;;;;;;;;;5020634;28;20436;-83
2022/08/13 03:04:05;;;;;;;5.45;3.92;;;;;;;;;;5016324;28;20080;-83
2022/08/13 03:06:32;;;;;;;4.43;3.58;;;;;;;;;;5020382;28;20144;-83
2022/08/13 03:09:00;;;;;;;5.22;3.53;;;;;;;;;;5024501;28;20110;-83
2022/08/13 03:11:26;;;;;;;6.30;3.10;;;;;;;;;;5021506;28;20049;-83
2022/08/13 03:14:03;;;;;;;4.32;3.60;;;;;;;;;;4999523;28;20482;-83
2022/08/13 03:16:29;;;;;;;5.75;3.70;;;;;;;;;;5015934;28;20072;-83
2022/08/13 03:18:57;;;;;;;4.22;3.20;;;;;;;;;;5023131;28;20038;-83
2022/08/13 03:21:28;;;;;;;4.97;3.97;;;;;;;;;;5018999;28;20022;-83
2022/08/13 03:23:53;;;;;;;4.22;3.78;;;;;;;;;;5018890;28;20022;-83
2022/08/13 03:26:20;;;;;;;4.00;3.25;;;;;;;;;;5021673;28;20099;-83
2022/08/13 03:28:46;;;;;;;5.88;4.18;;;;;;;;;;5023602;28;20383;-83
2022/08/13 03:31:12;;;;;;;5.38;3.55;;;;;;;;;;5023632;28;20029;-83
2022/08/13 03:33:38;;;;;;;4.90;3.50;;;;;;;;;;5018300;28;20037;-82
2022/08/13 03:36:04;;;;;;;4.88;3.70;;;;;;;;;;5017892;28;20061;-83
2022/08/13 03:38:30;;;;;;;4.22;3.80;;;;;;;;;;4990322;28;20061;-82
2022/08/13 03:41:01;;;;;;;4.53;3.47;;;;;;;;;;5021071;28;20084;-83
2022/08/13 03:43:28;;;;;;;5.07;4.00;;;;;;;;;;5020695;28;20026;-82
2022/08/13 03:45:54;;;;;;;5.40;4.10;;;;;;;;;;5022725;28;20536;-83
2022/08/13 03:48:21;;;;;;;5.55;4.78;;;;;;;;;;5018886;28;20541;-83
2022/08/13 03:50:48;;;;;;;5.30;4.07;;;;;;;;;;5023190;28;20044;-82
2022/08/13 03:53:16;;;;;;;16.00;11.27;;;;;;;;;;5025728;28;20084;-83
2022/08/13 03:55:42;;;;;;;5.97;4.20;;;;;;;;;;5016931;28;20381;-82
2022/08/13 03:58:09;;;;;;;5.45;4.38;;;;;;;;;;5022587;28;20030;-83
2022/08/13 04:00:43;;;;;;;4.80;4.18;;;;;;;;;;5019090;28;20113;-82
2022/08/13 04:03:41;;;;;;;6.15;4.38;;;;;;;;;;5020078;28;20045;-83
2022/08/13 04:06:11;;;;;;;4.90;3.90;;;;;;;;;;5013697;28;20033;-83
2022/08/13 04:08:38;;;;;;;6.25;4.03;;;;;;;;;;5022188;28;20022;-82
2022/08/13 04:11:09;;;;;;;5.22;3.90;;;;;;;;;;4995688;28;20478;-83
2022/08/13 04:13:36;;;;;;;4.95;4.35;;;;;;;;;;5017081;28;20501;-82
2022/08/13 04:16:12;;;;;;;4.47;3.75;;;;;;;;;;5019373;28;20029;-83
2022/08/13 04:18:39;;;;;;;5.82;4.40;;;;;;;;;;5027608;28;20025;-83
2022/08/13 04:21:08;;;;;;;5.80;4.65;;;;;;;;;;5023533;28;20029;-83
2022/08/13 04:23:38;;;;;;;5.20;4.30;;;;;;;;;;5014336;28;20026;-83
2022/08/13 04:26:03;;;;;;;5.00;4.30;;;;;;;;;;5021382;28;20049;-84
2022/08/13 04:28:29;;;;;;;11.15;8.93;;;;;;;;;;5017777;28;20049;-83
2022/08/13 04:30:55;;;;;;;5.95;4.60;;;;;;;;;;5019182;28;20034;-84
2022/08/13 04:33:20;;;;;;;6.22;4.95;;;;;;;;;;5017319;28;20022;-83
2022/08/13 04:35:46;;;;;;;6.93;5.80;;;;;;;;;;4998168;28;20037;-84
2022/08/13 04:38:13;;;;;;;7.35;5.43;;;;;;;;;;5011366;28;20026;-83
2022/08/13 04:40:40;;;;;;;6.55;5.40;;;;;;;;;;5021150;28;20022;-83
2022/08/13 04:43:07;;;;;;;6.22;5.35;;;;;;;;;;5011365;28;20029;-83
2022/08/13 04:45:34;;;;;;;5.88;5.28;;;;;;;;;;4994151;28;20092;-83
2022/08/13 04:48:04;;;;;;;5.93;4.90;;;;;;;;;;5001625;28;20108;-83
2022/08/13 04:50:33;;;;;;;6.70;5.35;;;;;;;;;;5013733;28;20037;-83
2022/08/13 04:53:02;;;;;;;7.60;5.15;;;;;;;;;;5013474;28;20083;-84
2022/08/13 04:55:29;;;;;;;6.95;5.68;;;;;;;;;;5013500;28;20053;-84
2022/08/13 04:57:54;;;;;;;7.47;5.85;;;;;;;;;;5017558;28;20029;-84
2022/08/13 05:00:20;;;;;;;6.63;5.93;;;;;;;;;;5016760;28;20701;-83
2022/08/13 05:02:46;;;;;;;6.05;5.32;;;;;;;;;;4995690;28;20411;-83
2022/08/13 05:05:12;;;;;;;8.27;6.35;;;;;;;;;;5014617;28;20124;-84
2022/08/13 05:07:38;;;;;;;7.78;6.82;;;;;;;;;;5018999;28;20358;-83
2022/08/13 05:10:08;;;;;;;9.65;7.20;;;;;;;;;;5011307;28;20478;-83
2022/08/13 05:12:38;;;;;;;7.32;6.50;;;;;;;;;;5013995;28;20451;-84
2022/08/13 05:15:06;;;;;;;9.80;7.18;;;;;;;;;;5007528;28;20542;-84
2022/08/13 05:17:32;;;;;;;8.10;7.22;;;;;;;;;;5019465;28;20029;-84
2022/08/13 05:19:58;;;;;;;7.85;6.55;;;;;;;;;;5015276;28;20406;-84
2022/08/13 05:22:28;;;;;;;7.15;6.45;;;;;;;;;;5016291;28;20038;-84
2022/08/13 05:24:53;;;;;;;6.68;5.97;;;;;;;;;;5023280;28;20029;-84
2022/08/13 05:27:19;;;;;;;19.60;14.77;;;;;;;;;;5004506;28;20460;-84
2022/08/13 05:29:45;;;;;;;51.33;39.78;;;;;;;;;;5017431;28;20030;-84
2022/08/13 05:32:10;;;;;;;17.40;14.27;;;;;;;;;;5023007;28;20036;-85
2022/08/13 05:34:37;;;;;;;8.82;7.25;;;;;;;;;;5000319;28;20505;-84
2022/08/13 05:37:03;;;;;;;7.93;7.10;;;;;;;;;;5019635;28;20045;-84
2022/08/13 05:39:29;;;;;;;7.75;6.95;;;;;;;;;;5015726;28;20022;-84
2022/08/13 05:41:55;;;;;;;9.02;7.80;;;;;;;;;;4992248;28;20037;-84
2022/08/13 05:44:22;;;;;;;9.23;7.63;;;;;;;;;;5017095;28;20025;-84
2022/08/13 05:46:48;;;;;;;9.98;7.20;;;;;;;;;;4993713;28;20072;-84
2022/08/13 05:49:14;;;;;;;7.95;6.95;;;;;;;;;;4996239;28;20383;-84
2022/08/13 05:51:39;;;;;;;8.38;7.13;;;;;;;;;;4998398;28;20041;-84
2022/08/13 05:54:07;;;;;;;9.05;7.97;;;;;;;;;;5020703;28;20026;-86
2022/08/13 05:56:35;;;;;;;8.18;7.30;;;;;;;;;;5017935;28;20025;-84
2022/08/13 05:59:01;;;;;;;10.07;7.50;;;;;;;;;;5014663;28;20021;-85
2022/08/13 06:04:19;;;;;;;8.40;6.82;;;;;;;;;;5018150;28;20605;-84
2022/08/13 06:06:45;;;;;;;9.50;7.65;;;;;;;;;;5018992;28;20068;-85
2022/08/13 06:09:11;;;;;;;9.05;7.47;;;;;;;;;;5020511;28;20022;-84
2022/08/13 06:11:42;;;;;;;11.70;7.78;;;;;;;;;;5012814;28;20386;-84
2022/08/13 06:14:08;;;;;;;10.45;6.72;;;;;;;;;;5012619;28;20026;-84
2022/08/13 06:16:37;;;;;;;8.93;7.63;;;;;;;;;;5018299;28;20025;-84
2022/08/13 06:19:03;;;;;;;8.35;6.93;;;;;;;;;;5014502;28;20084;-85
2022/08/13 06:21:28;;;;;;;10.57;7.47;;;;;;;;;;5015642;28;20033;-84
2022/08/13 06:23:54;;;;;;;8.63;7.72;;;;;;;;;;5016467;28;20040;-84
2022/08/13 06:26:22;;;;;;;10.30;7.70;;;;;;;;;;5019519;28;20783;-84
2022/08/13 06:28:52;;;;;;;10.15;8.00;;;;;;;;;;5014785;28;20050;-84
2022/08/13 06:31:25;;;;;;;;;;;;;;;;;;4996646;28;20034;-84
2022/08/13 06:33:55;;;;;;;9.07;7.47;;;;;;;;;;5023018;28;20384;-84
2022/08/13 06:36:24;;;;;;;10.80;7.45;;;;;;;;;;5016828;28;20030;-85
2022/08/13 06:38:50;;;;;;;8.60;7.57;;;;;;;;;;4994260;28;20531;-85
2022/08/13 06:41:19;;;;;;;8.60;7.55;;;;;;;;;;5018105;28;20034;-85
2022/08/13 06:43:48;;;;;;;14.77;8.70;;;;;;;;;;5000186;28;20123;-83
2022/08/13 06:46:16;;;;;;;8.80;7.88;;;;;;;;;;5023703;28;20486;-85
2022/08/13 06:48:42;;;;;;;8.70;7.80;;;;;;;;;;5020555;28;20429;-86
2022/08/13 06:51:10;;;;;;;11.35;8.48;;;;;;;;;;5003045;28;20026;-84
2022/08/13 06:53:38;;;;;;;10.55;8.27;;;;;;;;;;5017563;28;20049;-84
2022/08/13 06:56:06;;;;;;;11.32;8.85;;;;;;;;;;5021121;28;20029;-85
2022/08/13 06:58:32;;;;;;;9.70;7.78;;;;;;;;;;5024947;28;20034;-86
2022/08/13 07:00:59;;;;;;;11.70;8.13;;;;;;;;;;5024402;28;20087;-86
2022/08/13 07:03:35;;;;;;;13.35;8.52;;;;;;;;;;5019045;28;20662;-85
2022/08/13 07:06:00;;;;;;;10.95;8.35;;;;;;;;;;5017685;28;20614;-85
2022/08/13 07:08:28;;;;;;;9.07;8.07;;;;;;;;;;5020299;28;20026;-83
2022/08/13 07:13:59;;;;;;;9.98;8.70;;;;;;;;;;4992853;28;21637;-84
2022/08/13 07:16:30;;;;;;;9.65;7.47;;;;;;;;;;5015350;28;20041;-82
2022/08/13 07:18:56;;;;;;;9.60;8.13;;;;;;;;;;5024204;28;20024;-82
2022/08/13 07:21:24;;;;;;;8.20;7.07;;;;;;;;;;5004048;28;20091;-82
2022/08/13 07:23:51;;;;;;;10.60;7.53;;;;;;;;;;5025541;28;20095;-85
2022/08/13 07:26:18;;;;;;;8.98;7.85;;;;;;;;;;5015994;28;20101;-84
2022/08/13 07:28:45;;;;;;;9.15;7.65;;;;;;;;;;5014357;28;20049;-82
2022/08/13 07:31:11;;;;;;;9.02;7.78;;;;;;;;;;5011273;28;20064;-84
2022/08/13 07:33:42;;;;;;;8.60;7.78;;;;;;;;;;5015762;28;20026;-83
2022/08/13 07:36:10;;;;;;;10.00;7.50;;;;;;;;;;5016953;28;20021;-86
2022/08/13 07:38:36;;;;;;;10.20;8.50;;;;;;;;;;5015920;28;20029;-83
2022/08/13 07:41:03;;;;;;;14.80;8.48;;;;;;;;;;5016105;28;20485;-84
2022/08/13 07:43:32;;;;;;;11.32;8.18;;;;;;;;;;5017428;28;20100;-84
2022/08/13 07:46:07;;;;;;;10.70;8.32;;;;;;;;;;5021355;28;20029;-84
2022/08/13 07:48:34;;;;;;;11.48;8.07;;;;;;;;;;5000797;28;20057;-84
2022/08/13 07:51:00;;;;;;;9.90;8.65;;;;;;;;;;5022316;28;20097;-83
2022/08/13 07:53:28;;;;;;;10.43;8.63;;;;;;;;;;5021463;28;20034;-82
2022/08/13 07:55:54;;;;;;;9.70;8.70;;;;;;;;;;5018847;28;20046;-84
2022/08/13 07:58:20;;;;;;;11.18;8.65;;;;;;;;;;5019673;28;20034;-85
2022/08/13 08:00:45;;;;;;;9.15;8.25;;;;;;;;;;5002032;28;20079;-82
2022/08/13 08:03:12;;;;;;;10.13;8.68;;;;;;;;;;5020150;28;20033;-83
2022/08/13 08:05:42;;;;;;;10.40;8.75;;;;;;;;;;5021035;28;20110;-84
2022/08/13 08:08:13;;;;;;;14.85;9.30;;;;;;;;;;5016709;28;20025;-84
2022/08/13 08:10:42;;;;;;;10.15;9.02;;;;;;;;;;4999634;28;20045;-83
2022/08/13 08:13:09;;;;;;;12.98;9.13;;;;;;;;;;5015749;28;20029;-83
2022/08/13 08:15:38;;;;;;;10.30;8.50;;;;;;;;;;5023130;28;20497;-85
2022/08/13 08:18:04;;;;;;;9.60;8.60;;;;;;;;;;5016380;28;20458;-85
2022/08/13 08:20:30;;;;;;;10.20;8.38;;;;;;;;;;5016820;28;20028;-84
2022/08/13 08:22:56;;;;;;;10.85;8.65;;;;;;;;;;5004455;28;20033;-84
2022/08/13 08:25:22;;;;;;;11.13;9.18;;;;;;;;;;5022735;28;20060;-82
2022/08/13 08:27:49;;;;;;;12.38;9.30;;;;;;;;;;5021306;28;20069;-84
2022/08/13 08:30:20;;;;;;;11.55;7.85;;;;;;;;;;5016255;28;20030;-83
2022/08/13 08:32:52;;;;;;;9.40;8.30;;;;;;;;;;5004966;28;20060;-84
2022/08/13 08:35:21;;;;;;;10.23;8.88;;;;;;;;;;5018144;28;20117;-85
2022/08/13 08:43:34;;;;;;;13.10;9.07;;;;;;;;;;5017804;28;20037;-83
2022/08/13 08:46:05;;;;;;;10.80;8.63;;;;;;;;;;5022849;28;20022;-83
2022/08/13 08:48:32;;;;;;;13.18;9.18;;;;;;;;;;5016615;28;20025;-83
2022/08/13 08:50:58;;;;;;;13.95;10.57;;;;;;;;;;5020020;28;20029;-83
2022/08/13 08:53:27;;;;;;;12.27;8.65;;;;;;;;;;5021955;28;20497;-83
2022/08/13 08:55:53;;;;;;;12.57;9.30;;;;;;;;;;5017109;28;20101;-83
2022/08/13 08:58:21;;;;;;;10.90;9.23;;;;;;;;;;5017877;28;20098;-83
2022/08/13 09:00:48;;;;;;;10.95;9.07;;;;;;;;;;5018766;28;20047;-82
2022/08/13 09:03:17;;;;;;;12.38;9.52;;;;;;;;;;5018059;28;20482;-83
2022/08/13 09:05:45;;;;;;;12.40;8.85;;;;;;;;;;5004197;28;20025;-85
2022/08/13 09:08:13;;;;;;;10.40;9.30;;;;;;;;;;5018708;28;20124;-83
2022/08/13 09:10:39;;;;;;;13.60;9.90;;;;;;;;;;5022220;28;20049;-83
2022/08/13 09:13:05;;;;;;;10.48;8.68;;;;;;;;;;5002907;28;20021;-84
2022/08/13 09:15:33;;;;;;;11.63;10.25;;;;;;;;;;5018408;28;20022;-87
2022/08/13 09:18:00;;;;;;;11.77;9.75;;;;;;;;;;5016298;28;20021;-85
2022/08/13 09:20:28;;;;;;;12.82;9.57;;;;;;;;;;5018773;28;20044;-84
2022/08/13 09:23:03;;;;;;;13.48;10.43;;;;;;;;;;5019597;28;20026;-84
2022/08/13 09:25:29;;;;;;;15.10;10.82;;;;;;;;;;5007867;28;20065;-83
2022/08/13 09:27:55;;;;;;;11.30;9.70;;;;;;;;;;5021616;28;20049;-87
2022/08/13 09:30:21;;;;;;;13.00;10.35;;;;;;;;;;5020799;28;20128;-82
2022/08/13 09:32:48;;;;;;;13.27;10.63;;;;;;;;;;5023711;28;20045;-84
2022/08/13 09:35:14;;;;;;;12.85;10.98;;;;;;;;;;5017773;28;20026;-84
2022/08/13 09:37:40;;;;;;;12.02;10.70;;;;;;;;;;5017758;28;20481;-82
2022/08/13 09:40:07;;;;;;;12.55;10.82;;;;;;;;;;5000039;28;20079;-84
2022/08/13 09:42:57;;;;;;;14.93;11.57;;;;;;;;;;4997784;28;20120;-85
2022/08/13 09:45:27;;;;;;;;;;;;;;;;;;5020718;28;20065;-84
2022/08/13 09:47:53;;;;;;;18.40;10.38;;;;;;;;;;5014934;28;19979;-86
2022/08/13 09:50:21;;;;;;;12.43;11.13;;;;;;;;;;5018546;28;20025;-84
2022/08/13 09:52:48;;;;;;;19.98;12.10;;;;;;;;;;5018335;28;20032;-82
2022/08/13 09:55:13;;;;;;;16.85;12.73;;;;;;;;;;5015920;28;20025;-81
2022/08/13 09:57:52;;;;;;;20.20;13.98;;;;;;;;;;5020642;28;20038;-83
2022/08/13 10:00:22;;;;;;;23.38;14.90;;;;;;;;;;5014020;28;20021;-82
2022/08/13 10:02:52;;;;;;;18.08;14.00;;;;;;;;;;5000325;28;20026;-82
2022/08/13 10:05:18;;;;;;;21.63;15.75;;;;;;;;;;5019712;28;20049;-81
2022/08/13 10:07:45;;;;;;;23.33;15.98;;;;;;;;;;5009719;28;20479;-81
2022/08/13 10:10:11;;;;;;;23.63;17.00;;;;;;;;;;5016586;28;20065;-80
2022/08/13 10:12:37;;;;;;;22.40;16.83;;;;;;;;;;5022718;28;20025;-81
2022/08/13 10:15:03;;;;;;;19.60;15.75;;;;;;;;;;5015557;28;20029;-81
2022/08/13 10:18:02;;;;;;;26.83;17.08;;;;;;;;;;5016613;28;20062;-84
2022/08/13 10:20:45;;;;;;;24.48;14.38;;;;;;;;;;5015691;28;20509;-84
2022/08/13 10:23:13;;;;;;;19.35;15.40;;;;;;;;;;5019745;28;20609;-83
2022/08/13 10:25:40;;;;;;;20.77;13.80;;;;;;;;;;5020134;28;20726;-84
2022/08/13 10:28:23;;;;;;;20.63;13.60;;;;;;;;;;5023091;28;20069;-84
2022/08/13 10:30:49;;;;;;;16.75;12.38;;;;;;;;;;5017721;28;20026;-83
2022/08/13 10:33:16;;;;;;;17.52;11.10;;;;;;;;;;5019989;28;20026;-83
2022/08/13 10:35:44;;;;;;;14.90;12.27;;;;;;;;;;5023092;28;20033;-83
2022/08/13 10:38:15;;;;;;;15.30;11.82;;;;;;;;;;5024642;28;20021;-83
2022/08/13 10:40:40;;;;;;;17.92;11.95;;;;;;;;;;5019721;28;20026;-81
2022/08/13 10:43:06;;;;;;;17.35;11.85;;;;;;;;;;5018496;28;20104;-81
2022/08/13 10:45:32;;;;;;;14.70;11.82;;;;;;;;;;5019656;28;20036;-81
2022/08/13 10:47:57;;;;;;;16.13;12.43;;;;;;;;;;5021326;28;20034;-81
2022/08/13 10:50:31;;;;;;;19.25;12.65;;;;;;;;;;5025007;28;20113;-84
2022/08/13 10:52:58;;;;;;;19.48;14.35;;;;;;;;;;5018604;28;20021;-81
2022/08/13 10:55:24;;;;;;;19.45;14.63;;;;;;;;;;5023561;28;20129;-81
2022/08/13 10:57:50;;;;;;;19.60;15.13;;;;;;;;;;5005388;28;20122;-84
2022/08/13 11:00:17;;;;;;;21.80;15.88;;;;;;;;;;5018786;28;20037;-82
2022/08/13 11:02:43;;;;;;;22.42;16.65;;;;;;;;;;5000443;28;20040;-82
2022/08/13 11:05:11;;;;;;;17.55;15.13;;;;;;;;;;5019867;28;20737;-85
2022/08/13 11:07:38;;;;;;;18.60;14.05;;;;;;;;;;5024004;28;20029;-83
2022/08/13 11:10:06;;;;;;;18.75;14.15;;;;;;;;;;5000887;28;20029;-85
2022/08/13 11:12:33;;;;;;;16.23;12.57;;;;;;;;;;5005197;28;20029;-83
2022/08/13 11:15:00;;;;;;;12.90;11.02;;;;;;;;;;5021274;28;20103;-83
2022/08/13 11:17:25;;;;;;;13.05;10.73;;;;;;;;;;5025375;28;20025;-82
2022/08/13 11:19:51;;;;;;;15.35;11.88;;;;;;;;;;5021956;28;20060;-84
2022/08/13 11:22:18;;;;;;;15.18;11.40;;;;;;;;;;5000645;28;20053;-82
2022/08/13 11:24:43;;;;;;;14.40;12.35;;;;;;;;;;5019515;28;20029;-81
2022/08/13 11:27:09;;;;;;;17.50;13.77;;;;;;;;;;5021283;28;20037;-83
2022/08/13 11:29:35;;;;;;;17.90;14.43;;;;;;;;;;5022119;28;20376;-81
2022/08/13 11:32:00;;;;;;;16.42;13.57;;;;;;;;;;5023111;28;20063;-82
2022/08/13 11:34:26;;;;;;;18.55;14.40;;;;;;;;;;5024747;28;20029;-82
2022/08/13 11:36:52;;;;;;;18.25;14.95;;;;;;;;;;5018820;28;20033;-82
2022/08/13 11:39:18;;;;;;;17.25;15.35;;;;;;;;;;5005607;28;20040;-81
2022/08/13 11:41:43;;;;;;;16.75;14.13;;;;;;;;;;5023260;28;20557;-83
2022/08/13 11:44:08;;;;;;;15.30;13.70;;;;;;;;;;5016989;28;20026;-81
2022/08/13 11:46:34;;;;;;;16.33;13.68;;;;;;;;;;5010233;28;20033;-82
2022/08/13 11:49:00;;;;;;;20.92;13.48;;;;;;;;;;5019888;28;20030;-84
2022/08/13 11:51:25;;;;;;;13.27;11.73;;;;;;;;;;5018813;28;20037;-81
2022/08/13 11:53:51;;;;;;;14.32;12.82;;;;;;;;;;5021709;28;20025;-82
2022/08/13 11:56:16;;;;;;;16.92;12.85;;;;;;;;;;5018396;28;20022;-84
2022/08/13 11:58:42;;;;;;;14.82;13.25;;;;;;;;;;5019640;28;20038;-83
2022/08/13 12:01:07;;;;;;;16.42;13.82;;;;;;;;;;5021654;28;20026;-83
2022/08/13 12:03:35;;;;;;;15.48;13.57;;;;;;;;;;5017161;28;20037;-82
2022/08/13 12:06:01;;;;;;;16.65;13.70;;;;;;;;;;5002553;28;20113;-81
2022/08/13 12:08:26;;;;;;;19.00;14.73;;;;;;;;;;5014268;28;20824;-82
2022/08/13 12:10:52;;;;;;;18.70;14.95;;;;;;;;;;4996188;28;20470;-82
2022/08/13 12:13:17;;;;;;;17.60;15.27;;;;;;;;;;5019633;28;20037;-84
2022/08/13 12:15:43;;;;;;;15.88;13.35;;;;;;;;;;4980666;28;20022;-83
2022/08/13 12:18:17;;;;;;;15.05;13.38;;;;;;;;;;5021124;28;20029;-83
2022/08/13 12:20:42;;;;;;;18.15;14.93;;;;;;;;;;5013359;28;20041;-83
2022/08/13 12:23:08;;;;;;;19.70;16.00;;;;;;;;;;5022384;28;20053;-85
2022/08/13 12:25:34;;;;;;;18.05;15.52;;;;;;;;;;5015070;28;20029;-84
2022/08/13 12:28:11;;;;;;;16.02;13.32;;;;;;;;;;5018840;28;20088;-85
2022/08/13 12:30:37;;;;;;;14.65;13.15;;;;;;;;;;5016243;28;20431;-82
2022/08/13 12:33:03;;;;;;;16.23;13.57;;;;;;;;;;5024859;28;20104;-82
2022/08/13 12:35:29;;;;;;;19.48;16.48;;;;;;;;;;5021737;28;20107;-82
2022/08/13 12:37:54;;;;;;;20.73;16.35;;;;;;;;;;5014769;28;20478;-81
2022/08/13 12:40:20;;;;;;;20.20;15.93;;;;;;;;;;5017941;28;20021;-82
2022/08/13 12:42:45;;;;;;;17.52;14.98;;;;;;;;;;5018493;28;20029;-81
2022/08/13 12:45:11;;;;;;;15.00;13.40;;;;;;;;;;5018122;28;20363;-81
2022/08/13 12:47:37;;;;;;;19.52;14.68;;;;;;;;;;5019366;28;20028;-82
2022/08/13 12:50:04;;;;;;;18.15;14.68;;;;;;;;;;5013388;28;20030;-81
2022/08/13 12:52:29;;;;;;;18.33;14.50;;;;;;;;;;5018383;28;20042;-82
2022/08/13 12:54:55;;;;;;;14.82;12.70;;;;;;;;;;4993061;28;20112;-82
2022/08/13 12:57:20;;;;;;;15.75;13.05;;;;;;;;;;5009887;28;20033;-82
2022/08/13 12:59:45;;;;;;;15.13;13.50;;;;;;;;;;5016880;28;20026;-83
2022/08/13 13:02:11;;;;;;;14.93;12.98;;;;;;;;;;5025096;28;20040;-82
2022/08/13 13:04:41;;;;;;;14.98;12.90;;;;;;;;;;5020315;28;20470;-83
2022/08/13 13:07:06;;;;;;;;;;;;;;;;;;5002427;28;20112;-82
2022/08/13 13:09:32;;;;;;;16.70;13.88;;;;;;;;;;5003492;28;20012;-82
2022/08/13 13:11:57;;;;;;;14.15;12.63;;;;;;;;;;5022872;28;20083;-82
2022/08/13 13:14:23;;;;;;;14.85;12.68;;;;;;;;;;5023298;28;20033;-83
2022/08/13 13:16:48;;;;;;;15.85;13.52;;;;;;;;;;5014456;28;20043;-83
2022/08/13 13:19:14;;;;;;;16.08;13.23;;;;;;;;;;5021534;28;20021;-81
2022/08/13 13:21:40;;;;;;;15.45;13.55;;;;;;;;;;5020313;28;20036;-83
2022/08/13 13:24:12;;;;;;;16.55;14.30;;;;;;;;;;5018920;28;20035;-83
2022/08/13 13:26:37;;;;;;;16.40;13.00;;;;;;;;;;4998826;28;20034;-82
2022/08/13 13:29:03;;;;;;;19.20;13.25;;;;;;;;;;4994870;28;20042;-83
2022/08/13 13:31:28;;;;;;;17.10;14.48;;;;;;;;;;5020681;28;20036;-82
2022/08/13 13:33:54;;;;;;;19.60;15.63;;;;;;;;;;5003544;28;20029;-82
2022/08/13 13:36:19;;;;;;;19.52;15.45;;;;;;;;;;5018260;28;20502;-82
2022/08/13 13:38:45;;;;;;;22.65;17.30;;;;;;;;;;5013213;28;20156;-81
2022/08/13 13:41:10;;;;;;;22.73;16.20;;;;;;;;;;5017766;28;20096;-82
2022/08/13 13:43:36;;;;;;;21.98;16.02;;;;;;;;;;5015030;28;20029;-82
2022/08/13 13:46:02;;;;;;;25.35;18.30;;;;;;;;;;5018559;28;20047;-83
2022/08/13 13:48:32;;;;;;;23.65;17.13;;;;;;;;;;5020223;28;20042;-81
2022/08/13 13:51:00;;;;;;;26.30;17.88;;;;;;;;;;5004665;28;20434;-82
2022/08/13 13:53:28;;;;;;;21.25;17.15;;;;;;;;;;5023114;28;20034;-82
2022/08/13 13:55:54;;;;;;;21.73;17.13;;;;;;;;;;5018142;28;20026;-80
2022/08/13 13:58:21;;;;;;;23.02;17.90;;;;;;;;;;5016990;28;20033;-81
2022/08/13 14:00:51;;;;;;;21.58;16.48;;;;;;;;;;5026661;28;20058;-83
2022/08/13 14:03:17;;;;;;;24.08;16.92;;;;;;;;;;5021941;28;20077;-83
2022/08/13 14:05:43;;;;;;;25.20;18.27;;;;;;;;;;5027055;28;20032;-83
2022/08/13 14:08:09;;;;;;;25.83;18.48;;;;;;;;;;5001422;28;20033;-82
2022/08/13 14:10:37;;;;;;;23.98;16.92;;;;;;;;;;5006690;28;20451;-83
2022/08/13 14:13:03;;;;;;;21.33;16.90;;;;;;;;;;5004278;28;20025;-84
2022/08/13 14:15:33;;;;;;;22.83;16.55;;;;;;;;;;5019020;28;20026;-83
2022/08/13 14:18:04;;;;;;;21.30;17.15;;;;;;;;;;5025238;28;20032;-84
2022/08/13 14:20:29;;;;;;;23.52;16.35;;;;;;;;;;5021032;28;20032;-83
2022/08/13 14:22:56;;;;;;;22.02;17.20;;;;;;;;;;5024971;28;20022;-84
2022/08/13 14:25:22;;;;;;;18.35;13.65;;;;;;;;;;5022665;28;20563;-83
2022/08/13 14:27:48;;;;;;;20.63;15.50;;;;;;;;;;5027278;28;20049;-83
2022/08/13 14:30:15;;;;;;;19.83;15.88;;;;;;;;;;5021063;28;20040;-83
2022/08/13 14:32:41;;;;;;;19.55;14.60;;;;;;;;;;5026255;28;20021;-84
2022/08/13 14:35:09;;;;;;;17.73;13.30;;;;;;;;;;5026472;28;20524;-83
2022/08/13 14:37:37;;;;;;;18.40;15.13;;;;;;;;;;5024867;28;20022;-83
2022/08/13 14:40:06;;;;;;;16.88;14.70;;;;;;;;;;5022609;28;20029;-82
2022/08/13 14:42:39;;;;;;;17.95;14.52;;;;;;;;;;5026639;28;20041;-83
2022/08/13 14:47:54;;;;;;;15.98;12.95;;;;;;;;;;5023918;28;20065;-84
2022/08/13 14:50:21;;;;;;;17.30;12.80;;;;;;;;;;5002371;28;20658;-82
2022/08/13 14:52:47;;;;;;;12.70;11.05;;;;;;;;;;5023656;28;20095;-82
2022/08/13 14:55:14;;;;;;;13.25;11.40;;;;;;;;;;5017763;28;20156;-82